createdAt,value
2022-07-28T00:01:19.945Z,18.10
2022-07-28T00:03:49.536Z,18.10
2022-07-28T00:06:19.289Z,18.00
2022-07-28T00:08:49.013Z,18.00
2022-07-28T00:11:17.994Z,18.00
2022-07-28T00:13:47.075Z,17.90
2022-07-28T00:16:16.128Z,17.90
2022-07-28T00:18:46.686Z,17.90
2022-07-28T00:21:15.754Z,17.80
2022-07-28T00:23:44.823Z,17.90
2022-07-28T00:26:13.838Z,17.80
2022-07-28T00:28:42.791Z,17.80
2022-07-28T00:31:13.353Z,17.70
2022-07-28T00:33:43.570Z,17.70
2022-07-28T00:36:14.324Z,17.70
2022-07-28T00:38:44.402Z,17.60
2022-07-28T00:41:16.735Z,17.50
2022-07-28T00:43:47.906Z,17.50
2022-07-28T00:46:19.268Z,17.40
2022-07-28T00:48:51.789Z,17.40
2022-07-28T00:51:23.798Z,17.50
2022-07-28T00:53:54.151Z,17.50
2022-07-28T00:56:24.055Z,17.50
2022-07-28T00:58:53.399Z,17.40
2022-07-28T01:01:22.924Z,17.40
2022-07-28T01:03:55.118Z,17.40
2022-07-28T01:06:50.549Z,17.40
2022-07-28T01:09:31.044Z,17.40
2022-07-28T01:12:03.811Z,17.30
2022-07-28T01:14:39.825Z,17.40
2022-07-28T01:17:15.625Z,17.40
2022-07-28T01:19:50.390Z,17.40
2022-07-28T01:22:24.170Z,17.40
2022-07-28T01:25:02.226Z,17.40
2022-07-28T01:27:45.278Z,17.40
2022-07-28T01:30:36.711Z,17.40
2022-07-28T01:33:11.268Z,17.40
2022-07-28T01:35:45.887Z,17.50
2022-07-28T01:38:16.652Z,17.40
2022-07-28T01:40:48.423Z,17.50
2022-07-28T01:43:22.556Z,17.50
2022-07-28T01:45:56.196Z,17.40
2022-07-28T01:48:26.277Z,17.40
2022-07-28T01:50:57.071Z,17.40
2022-07-28T01:53:27.518Z,17.40
2022-07-28T01:55:57.340Z,17.40
2022-07-28T01:58:29.292Z,17.40
2022-07-28T02:01:01.884Z,17.40
2022-07-28T02:03:32.234Z,17.50
2022-07-28T02:06:03.195Z,17.50
2022-07-28T02:08:33.698Z,17.50
2022-07-28T02:11:20.818Z,17.40
2022-07-28T02:13:51.117Z,17.40
2022-07-28T02:16:26.310Z,17.40
2022-07-28T02:18:59.256Z,17.30
2022-07-28T02:21:31.365Z,17.40
2022-07-28T02:24:01.292Z,17.40
2022-07-28T02:26:33.671Z,17.20
2022-07-28T02:29:06.346Z,17.20
2022-07-28T02:31:44.316Z,17.20
2022-07-28T02:34:17.484Z,17.20
2022-07-28T02:36:52.500Z,17.20
2022-07-28T02:39:26.644Z,17.30
2022-07-28T02:42:04.377Z,17.30
2022-07-28T02:44:40.980Z,17.20
2022-07-28T02:47:16.587Z,17.30
2022-07-28T02:49:46.764Z,17.30
2022-07-28T02:52:17.769Z,17.20
2022-07-28T02:54:48.026Z,17.20
2022-07-28T02:57:18.895Z,17.20
2022-07-28T02:59:50.048Z,17.30
2022-07-28T03:02:23.175Z,17.20
2022-07-28T03:05:01.908Z,17.20
2022-07-28T03:07:32.578Z,17.20
2022-07-28T03:10:01.848Z,17.10
2022-07-28T03:12:31.427Z,17.10
2022-07-28T03:15:00.392Z,17.10
2022-07-28T03:17:30.696Z,17.10
2022-07-28T03:20:00.237Z,17.10
2022-07-28T03:22:29.187Z,17.10
2022-07-28T03:24:59.399Z,17.20
2022-07-28T03:27:33.293Z,17.20
2022-07-28T03:30:06.524Z,17.30
2022-07-28T03:32:41.429Z,17.30
2022-07-28T03:35:11.825Z,17.20
2022-07-28T03:37:47.247Z,17.30
2022-07-28T03:40:16.547Z,17.70
2022-07-28T03:42:47.903Z,18.20
2022-07-28T03:45:17.664Z,18.60
2022-07-28T03:47:55.555Z,18.90
2022-07-28T03:50:25.172Z,19.40
2022-07-28T03:52:55.146Z,19.70
2022-07-28T03:55:25.215Z,20.10
2022-07-28T03:57:54.761Z,20.50
2022-07-28T04:00:26.058Z,21.00
2022-07-28T04:02:56.705Z,21.30
2022-07-28T04:05:25.757Z,21.60
2022-07-28T04:07:54.902Z,22.10
2022-07-28T04:10:23.933Z,22.50
2022-07-28T04:12:55.263Z,22.80
2022-07-28T04:15:25.061Z,23.10
2022-07-28T04:17:56.375Z,23.40
2022-07-28T04:20:26.654Z,23.70
2022-07-28T04:22:56.532Z,24.00
2022-07-28T04:25:28.607Z,24.30
2022-07-28T04:27:57.776Z,24.40
2022-07-28T04:30:28.146Z,24.70
2022-07-28T04:32:58.566Z,25.00
2022-07-28T04:35:28.555Z,25.40
2022-07-28T04:37:58.864Z,25.80
2022-07-28T04:40:28.814Z,26.00
2022-07-28T04:42:57.995Z,26.20
2022-07-28T04:45:27.109Z,26.50
2022-07-28T04:47:57.655Z,26.80
2022-07-28T04:50:27.343Z,27.20
2022-07-28T04:53:02.104Z,27.40
2022-07-28T04:55:31.341Z,27.60
2022-07-28T04:58:01.394Z,27.90
2022-07-28T05:00:31.174Z,28.00
2022-07-28T05:03:02.860Z,28.40
2022-07-28T05:05:32.358Z,28.80
2022-07-28T05:08:01.535Z,28.90
2022-07-28T05:10:30.775Z,29.30
2022-07-28T05:13:07.737Z,29.60
2022-07-28T05:15:37.156Z,29.80
2022-07-28T05:18:08.127Z,29.90
2022-07-28T05:20:37.336Z,30.10
2022-07-28T05:23:06.747Z,30.40
2022-07-28T05:25:37.565Z,30.70
2022-07-28T05:28:06.987Z,30.90
2022-07-28T05:30:37.399Z,30.90
2022-07-28T05:33:08.238Z,31.10
2022-07-28T05:35:37.607Z,31.10
2022-07-28T05:38:10.736Z,31.10
2022-07-28T05:40:40.483Z,31.20
2022-07-28T05:43:09.956Z,31.50
2022-07-28T05:45:39.491Z,31.60
2022-07-28T05:48:10.714Z,31.80
2022-07-28T05:50:40.208Z,32.10
2022-07-28T05:53:09.468Z,32.30
2022-07-28T05:55:59.649Z,32.40
2022-07-28T05:58:28.129Z,32.40
2022-07-28T06:01:00.488Z,32.50
2022-07-28T06:03:33.574Z,32.80
2022-07-28T06:06:14.870Z,32.70
2022-07-28T06:08:47.180Z,33.00
2022-07-28T06:11:21.755Z,33.00
2022-07-28T06:13:52.510Z,33.10
2022-07-28T06:16:23.295Z,33.10
2022-07-28T06:18:54.488Z,33.70
2022-07-28T06:21:25.343Z,34.10
2022-07-28T06:23:54.688Z,34.50
2022-07-28T06:26:24.150Z,34.70
2022-07-28T06:28:53.919Z,34.70
2022-07-28T06:31:23.252Z,34.70
2022-07-28T06:33:54.063Z,35.00
2022-07-28T06:36:23.579Z,35.20
2022-07-28T06:38:53.009Z,35.20
2022-07-28T06:41:22.158Z,35.30
2022-07-28T06:43:52.450Z,35.40
2022-07-28T06:46:22.424Z,35.30
2022-07-28T06:48:51.645Z,35.20
2022-07-28T06:51:23.511Z,35.20
2022-07-28T06:53:53.339Z,35.20
2022-07-28T06:56:22.521Z,35.00
2022-07-28T06:58:52.799Z,34.70
2022-07-28T07:01:21.980Z,34.60
2022-07-28T07:03:51.552Z,34.60
2022-07-28T07:06:22.528Z,34.70
2022-07-28T07:08:51.756Z,35.00
2022-07-28T07:11:21.279Z,35.30
2022-07-28T07:13:50.670Z,35.40
2022-07-28T07:16:20.659Z,35.50
2022-07-28T07:18:53.180Z,35.30
2022-07-28T07:21:24.169Z,35.30
2022-07-28T07:23:55.157Z,35.30
2022-07-28T07:26:24.606Z,35.10
2022-07-28T07:28:54.056Z,35.10
2022-07-28T07:31:23.344Z,35.20
2022-07-28T07:33:52.617Z,35.30
2022-07-28T07:36:23.320Z,35.20
2022-07-28T07:38:53.167Z,34.90
2022-07-28T07:41:23.258Z,34.90
2022-07-28T07:43:52.604Z,34.80
2022-07-28T07:46:22.418Z,34.50
2022-07-28T07:48:52.298Z,34.70
2022-07-28T07:51:23.077Z,35.00
2022-07-28T07:53:52.469Z,35.30
2022-07-28T07:56:21.957Z,35.70
2022-07-28T07:58:56.695Z,36.00
2022-07-28T08:01:26.552Z,35.90
2022-07-28T08:03:55.868Z,35.80
2022-07-28T08:06:28.058Z,35.90
2022-07-28T08:08:58.687Z,36.00
2022-07-28T08:11:28.136Z,36.10
2022-07-28T08:13:57.817Z,36.10
2022-07-28T08:16:27.497Z,36.30
2022-07-28T08:18:58.629Z,36.50
2022-07-28T08:21:30.336Z,36.50
2022-07-28T08:24:00.548Z,36.40
2022-07-28T08:26:30.367Z,36.20
2022-07-28T08:28:59.650Z,36.10
2022-07-28T08:31:29.154Z,36.10
2022-07-28T08:33:59.139Z,36.00
2022-07-28T08:36:32.316Z,35.70
2022-07-28T08:39:01.707Z,35.50
2022-07-28T08:41:36.106Z,35.50
2022-07-28T08:44:07.826Z,35.30
2022-07-28T08:46:38.866Z,35.30
2022-07-28T08:49:10.327Z,35.30
2022-07-28T08:51:43.397Z,35.20
2022-07-28T08:54:17.751Z,34.90
2022-07-28T08:56:48.872Z,34.50
2022-07-28T08:59:18.630Z,34.00
2022-07-28T09:01:54.051Z,33.60
2022-07-28T09:04:27.492Z,33.40
2022-07-28T09:06:58.549Z,33.20
2022-07-28T09:09:28.568Z,33.30
2022-07-28T09:11:58.085Z,33.50
2022-07-28T09:14:27.902Z,33.60
2022-07-28T09:16:57.856Z,33.80
2022-07-28T09:19:28.177Z,33.70
2022-07-28T09:22:08.020Z,33.60
2022-07-28T09:24:39.870Z,33.80
2022-07-28T09:27:10.742Z,33.70
2022-07-28T09:29:55.551Z,33.70
2022-07-28T09:32:25.270Z,33.70
2022-07-28T09:34:55.207Z,33.70
2022-07-28T09:37:28.743Z,33.90
2022-07-28T09:40:14.532Z,34.10
2022-07-28T09:42:50.580Z,34.10
2022-07-28T09:45:28.690Z,33.70
2022-07-28T09:48:12.929Z,33.40
2022-07-28T09:50:43.640Z,33.20
2022-07-28T09:53:29.241Z,32.80
2022-07-28T09:56:00.320Z,32.70
2022-07-28T09:58:31.156Z,33.00
2022-07-28T10:01:13.232Z,33.10
2022-07-28T10:03:44.317Z,33.10
2022-07-28T10:06:17.510Z,33.10
2022-07-28T10:08:51.622Z,33.00
2022-07-28T10:11:27.078Z,32.80
2022-07-28T10:14:03.129Z,32.70
2022-07-28T10:16:35.930Z,32.50
2022-07-28T10:19:07.221Z,32.40
2022-07-28T10:21:44.508Z,32.40
2022-07-28T10:24:22.427Z,32.50
2022-07-28T10:26:55.090Z,32.70
2022-07-28T10:29:26.654Z,32.60
2022-07-28T10:32:05.503Z,32.60
2022-07-28T10:34:39.456Z,32.50
2022-07-28T10:37:14.670Z,32.20
2022-07-28T10:39:53.099Z,32.00
2022-07-28T10:42:23.308Z,31.90
2022-07-28T10:44:54.354Z,31.70
2022-07-28T10:47:24.878Z,31.50
2022-07-28T10:50:06.277Z,31.30
2022-07-28T10:52:57.493Z,31.10
2022-07-28T10:55:40.700Z,31.00
2022-07-28T10:58:25.280Z,31.00
2022-07-28T11:00:58.409Z,30.90
2022-07-28T11:03:45.312Z,31.00
2022-07-28T11:06:31.619Z,31.00
2022-07-28T11:09:21.887Z,30.90
2022-07-28T11:11:58.257Z,30.70
2022-07-28T11:14:37.045Z,30.30
2022-07-28T11:17:24.366Z,30.30
2022-07-28T11:22:53.254Z,30.50
2022-07-28T11:25:23.642Z,30.50
2022-07-28T11:28:04.807Z,30.30
2022-07-28T11:30:55.549Z,30.30
2022-07-28T11:33:27.670Z,30.20
2022-07-28T11:36:02.169Z,29.70
2022-07-28T11:38:31.669Z,29.30
2022-07-28T11:41:01.030Z,29.00
2022-07-28T11:43:41.378Z,28.90
2022-07-28T11:46:25.969Z,29.50
2022-07-28T11:49:25.394Z,29.80
2022-07-28T11:52:21.334Z,29.70
2022-07-28T11:54:58.374Z,29.80
2022-07-28T11:57:29.669Z,30.10
2022-07-28T12:00:02.698Z,30.30
2022-07-28T12:02:36.724Z,30.40
2022-07-28T12:05:12.485Z,30.60
2022-07-28T12:07:44.267Z,30.60
2022-07-28T12:13:27.733Z,30.20
2022-07-28T12:15:58.665Z,29.90
2022-07-28T12:18:28.069Z,30.00
2022-07-28T12:21:00.588Z,29.80
2022-07-28T12:23:45.568Z,29.90
2022-07-28T12:26:31.748Z,29.50
2022-07-28T12:29:01.845Z,29.60
2022-07-28T12:31:36.396Z,29.60
2022-07-28T12:34:09.841Z,29.90
2022-07-28T12:36:40.178Z,30.10
2022-07-28T12:39:13.156Z,30.10
2022-07-28T12:41:42.625Z,30.30
2022-07-28T12:44:12.904Z,30.40
2022-07-28T12:46:49.209Z,30.50
2022-07-28T12:49:23.352Z,30.60
2022-07-28T12:51:52.950Z,30.20
2022-07-28T12:54:37.173Z,29.30
2022-07-28T12:57:06.901Z,29.00
2022-07-28T12:59:38.794Z,29.20
2022-07-28T13:02:10.662Z,29.30
2022-07-28T13:04:43.781Z,29.30
2022-07-28T13:07:17.288Z,28.90
2022-07-28T13:09:59.975Z,28.30
2022-07-28T13:12:31.989Z,27.70
2022-07-28T13:15:04.664Z,27.50
2022-07-28T13:17:53.943Z,27.70
2022-07-28T13:20:24.536Z,28.00
2022-07-28T13:22:54.182Z,27.90
2022-07-28T13:25:23.507Z,27.80
2022-07-28T13:27:57.034Z,27.90
2022-07-28T13:30:26.693Z,27.90
2022-07-28T13:32:58.889Z,28.10
2022-07-28T13:35:29.436Z,28.10
2022-07-28T13:37:58.843Z,28.30
2022-07-28T13:40:28.190Z,28.40
2022-07-28T13:42:57.449Z,28.70
2022-07-28T13:45:30.445Z,28.80
2022-07-28T13:48:01.431Z,28.90
2022-07-28T13:50:31.151Z,28.90
2022-07-28T13:53:00.512Z,28.80
2022-07-28T13:55:30.726Z,28.60
2022-07-28T13:58:00.051Z,28.60
2022-07-28T14:00:29.365Z,28.70
2022-07-28T14:02:58.995Z,28.80
2022-07-28T14:05:31.904Z,29.00
2022-07-28T14:08:02.241Z,29.20
2022-07-28T14:10:31.673Z,29.30
2022-07-28T14:13:01.942Z,29.20
2022-07-28T14:15:31.173Z,28.80
2022-07-28T14:18:00.471Z,28.00
2022-07-28T14:20:31.334Z,27.70
2022-07-28T14:23:01.854Z,27.70
2022-07-28T14:25:48.206Z,27.60
2022-07-28T14:28:18.343Z,27.20
2022-07-28T14:30:48.133Z,26.90
2022-07-28T14:33:17.543Z,26.90
2022-07-28T14:35:48.654Z,26.70
2022-07-28T14:41:07.356Z,26.40
2022-07-28T14:43:36.762Z,26.60
2022-07-28T14:46:15.067Z,26.80
2022-07-28T14:48:47.320Z,27.10
2022-07-28T14:51:18.233Z,27.40
2022-07-28T14:53:51.383Z,27.60
2022-07-28T14:56:21.402Z,27.80
2022-07-28T14:58:50.851Z,28.00
2022-07-28T15:01:20.291Z,27.90
2022-07-28T15:03:49.524Z,28.00
2022-07-28T15:06:20.409Z,28.10
2022-07-28T15:08:49.679Z,28.20
2022-07-28T15:11:18.781Z,28.40
2022-07-28T15:13:48.328Z,28.20
2022-07-28T15:16:17.849Z,27.70
2022-07-28T15:18:47.098Z,27.50
2022-07-28T15:21:17.588Z,27.50
2022-07-28T15:23:48.765Z,27.60
2022-07-28T15:26:18.068Z,27.80
2022-07-28T15:28:48.670Z,27.90
2022-07-28T15:31:19.863Z,27.80
2022-07-28T15:33:51.031Z,27.70
2022-07-28T15:36:27.827Z,27.60
2022-07-28T15:38:58.779Z,27.40
2022-07-28T15:41:29.074Z,27.20
2022-07-28T15:43:58.519Z,27.30
2022-07-28T15:46:27.863Z,27.20
2022-07-28T15:48:57.210Z,27.20
2022-07-28T15:51:27.279Z,27.10
2022-07-28T15:54:00.962Z,26.90
2022-07-28T15:56:30.600Z,26.80
2022-07-28T15:59:00.489Z,26.70
2022-07-28T16:01:30.418Z,26.80
2022-07-28T16:04:01.029Z,27.00
2022-07-28T16:06:52.711Z,27.10
2022-07-28T16:09:23.529Z,27.20
2022-07-28T16:11:52.910Z,27.30
2022-07-28T16:14:22.352Z,27.40
2022-07-28T16:16:51.770Z,27.40
2022-07-28T16:19:47.431Z,27.20
2022-07-28T16:22:10.681Z,27.00
2022-07-28T16:24:41.438Z,26.90
2022-07-28T16:27:10.894Z,26.80
2022-07-28T16:29:40.241Z,26.60
2022-07-28T16:32:09.445Z,26.60
2022-07-28T16:34:38.650Z,26.40
2022-07-28T16:37:07.870Z,26.50
2022-07-28T16:39:37.024Z,26.60
2022-07-28T16:42:09.300Z,26.70
2022-07-28T16:44:40.480Z,26.80
2022-07-28T16:47:10.157Z,26.80
2022-07-28T16:49:45.206Z,26.90
2022-07-28T16:52:15.522Z,26.80
2022-07-28T16:54:45.980Z,26.90
2022-07-28T16:57:18.465Z,26.80
2022-07-28T16:59:53.262Z,26.60
2022-07-28T17:02:22.505Z,26.40
2022-07-28T17:04:51.724Z,26.30
2022-07-28T17:07:21.409Z,26.30
2022-07-28T17:09:50.999Z,26.40
2022-07-28T17:12:21.979Z,26.40
2022-07-28T17:14:57.066Z,26.40
2022-07-28T17:17:26.271Z,26.50
2022-07-28T17:19:55.735Z,26.50
2022-07-28T17:22:25.152Z,26.40
2022-07-28T17:24:54.340Z,26.40
2022-07-28T17:27:37.248Z,26.40
2022-07-28T17:30:09.279Z,26.30
2022-07-28T17:32:38.624Z,26.30
2022-07-28T17:35:34.966Z,26.30
2022-07-28T17:38:00.712Z,26.30
2022-07-28T17:40:32.189Z,26.30
2022-07-28T17:43:06.494Z,26.30
2022-07-28T17:45:35.852Z,26.30
2022-07-28T17:48:05.276Z,26.20
2022-07-28T17:50:34.870Z,26.20
2022-07-28T17:53:04.140Z,26.10
2022-07-28T17:56:00.389Z,26.00
2022-07-28T17:58:32.375Z,26.00
2022-07-28T18:01:10.137Z,26.00
2022-07-28T18:03:57.155Z,26.00
2022-07-28T18:06:30.890Z,25.90
2022-07-28T18:09:06.522Z,25.90
2022-07-28T18:11:56.966Z,25.80
2022-07-28T18:14:30.804Z,25.70
2022-07-28T18:17:00.541Z,25.70
2022-07-28T18:19:30.282Z,25.70
2022-07-28T18:21:59.898Z,25.60
2022-07-28T18:24:29.118Z,25.50
2022-07-28T18:26:58.387Z,25.40
2022-07-28T18:29:38.191Z,25.40
2022-07-28T18:32:09.887Z,25.20
2022-07-28T18:34:40.675Z,25.20
2022-07-28T18:37:09.825Z,25.10
2022-07-28T18:39:38.921Z,25.10
2022-07-28T18:42:08.132Z,25.00
2022-07-28T18:44:38.747Z,25.00
2022-07-28T18:47:10.662Z,25.00
2022-07-28T18:49:39.970Z,24.90
2022-07-28T18:52:09.480Z,24.80
2022-07-28T18:54:38.573Z,24.70
2022-07-28T18:57:07.745Z,24.70
2022-07-28T18:59:43.978Z,24.50
2022-07-28T19:02:16.037Z,24.50
2022-07-28T19:04:45.730Z,24.40
2022-07-28T19:07:16.348Z,24.20
2022-07-28T19:09:46.838Z,23.90
2022-07-28T19:12:19.137Z,23.70
2022-07-28T19:14:50.441Z,23.50
2022-07-28T19:17:24.190Z,23.30
2022-07-28T19:19:56.562Z,23.30
2022-07-28T19:22:31.960Z,23.20
2022-07-28T19:25:03.363Z,23.20
2022-07-28T19:27:34.416Z,23.00
2022-07-28T19:30:09.551Z,23.00
2022-07-28T19:32:42.190Z,23.00
2022-07-28T19:35:13.987Z,22.80
2022-07-28T19:37:45.330Z,22.80
2022-07-28T19:40:19.242Z,22.60
2022-07-28T19:42:51.229Z,22.40
2022-07-28T19:45:22.256Z,22.30
2022-07-28T19:47:51.616Z,22.20
2022-07-28T19:50:21.272Z,22.00
2022-07-28T19:52:50.802Z,22.00
2022-07-28T19:55:20.587Z,22.10
2022-07-28T19:57:51.014Z,22.00
2022-07-28T20:00:25.258Z,22.00
2022-07-28T20:02:55.769Z,22.00
2022-07-28T20:05:29.899Z,21.90
2022-07-28T20:08:02.478Z,21.80
2022-07-28T20:10:32.040Z,21.70
2022-07-28T20:13:01.344Z,21.80
2022-07-28T20:15:32.361Z,21.70
2022-07-28T20:18:03.001Z,21.80
2022-07-28T20:20:32.968Z,21.80
2022-07-28T20:23:04.365Z,21.90
2022-07-28T20:25:34.455Z,21.90
2022-07-28T20:28:03.828Z,21.90
2022-07-28T20:30:37.901Z,21.70
2022-07-28T20:33:08.591Z,21.70
2022-07-28T20:35:38.082Z,21.70
2022-07-28T20:38:09.112Z,21.70
2022-07-28T20:40:38.710Z,21.70
2022-07-28T20:43:11.679Z,21.70
2022-07-28T20:45:42.640Z,21.60
2022-07-28T20:48:15.579Z,21.60
2022-07-28T20:50:47.770Z,21.60
2022-07-28T20:53:18.371Z,21.60
2022-07-28T20:55:47.912Z,21.60
2022-07-28T20:58:17.083Z,21.50
2022-07-28T21:00:49.595Z,21.40
2022-07-28T21:03:19.388Z,21.30
2022-07-28T21:05:48.575Z,21.30
2022-07-28T21:08:21.834Z,21.20
2022-07-28T21:10:51.444Z,21.10
2022-07-28T21:13:23.973Z,21.00
2022-07-28T21:15:55.011Z,20.90
2022-07-28T21:18:30.943Z,20.80
2022-07-28T21:21:00.331Z,20.60
2022-07-28T21:23:29.651Z,20.50
2022-07-28T21:26:04.081Z,20.30
2022-07-28T21:28:50.860Z,20.20
2022-07-28T21:31:27.128Z,20.00
2022-07-28T21:33:58.461Z,19.90
2022-07-28T21:36:29.461Z,19.80
2022-07-28T21:38:58.600Z,19.60
2022-07-28T21:41:36.266Z,19.60
2022-07-28T21:44:06.616Z,19.60
2022-07-28T21:46:39.650Z,19.60
2022-07-28T21:49:12.788Z,19.50
2022-07-28T21:51:42.899Z,19.40
2022-07-28T21:54:12.609Z,19.30
2022-07-28T21:56:42.233Z,19.30
2022-07-28T21:59:11.568Z,19.30
2022-07-28T22:01:42.160Z,19.40
2022-07-28T22:04:11.443Z,19.50
2022-07-28T22:07:35.110Z,19.50
2022-07-28T22:10:23.709Z,19.60
2022-07-28T22:12:52.999Z,19.50
2022-07-28T22:15:22.124Z,19.60
2022-07-28T22:17:52.754Z,19.60
2022-07-28T22:20:21.913Z,19.40
2022-07-28T22:22:50.977Z,19.30
2022-07-28T22:25:20.215Z,19.20
2022-07-28T22:27:49.432Z,19.00
2022-07-28T22:30:19.386Z,18.70
2022-07-28T22:32:48.576Z,18.60
2022-07-28T22:35:19.126Z,18.50
2022-07-28T22:37:48.125Z,18.50
2022-07-28T22:40:17.782Z,18.40
2022-07-28T22:42:48.583Z,18.40
2022-07-28T22:45:50.872Z,18.40
2022-07-28T22:48:07.756Z,18.40
2022-07-28T22:50:43.423Z,18.40
2022-07-28T22:53:12.614Z,18.40
2022-07-28T22:55:41.883Z,18.40
2022-07-28T22:58:10.872Z,18.40
2022-07-28T23:00:39.916Z,18.40
2022-07-28T23:03:12.305Z,18.40
2022-07-28T23:05:43.929Z,18.40
2022-07-28T23:08:13.123Z,18.30
2022-07-28T23:10:42.281Z,18.40
2022-07-28T23:13:11.283Z,18.30
2022-07-28T23:15:41.481Z,18.30
2022-07-28T23:18:11.492Z,18.30
2022-07-28T23:20:40.898Z,18.30
2022-07-28T23:23:11.542Z,18.30
2022-07-28T23:25:43.033Z,18.30
2022-07-28T23:28:13.138Z,18.20
2022-07-28T23:30:42.144Z,18.20
2022-07-28T23:33:54.204Z,18.20
2022-07-28T23:36:00.179Z,18.20
2022-07-28T23:38:30.607Z,18.20
2022-07-28T23:40:59.638Z,18.20
2022-07-28T23:43:30.295Z,18.10
2022-07-28T23:45:59.346Z,18.20
2022-07-28T23:48:28.324Z,18.10
2022-07-28T23:50:57.278Z,18.10
2022-07-28T23:53:26.389Z,18.00
2022-07-28T23:55:57.249Z,18.00
2022-07-28T23:58:26.517Z,18.00
